Time;durP1;ratioP1;P1;durP2;ratioP2;P2;SDS_P1;SDS_P2;PMS_P1;PMS_P2;Temp;Humidity;BMP_temperature;BMP_pressure;BME280_temperature;BME280_humidity;BME280_pressure;Samples;Min_cycle;Max_cycle;Signal;HPM_P1;HPM_P2
2022/12/18 00:01:22;;;;;;;82.75;35.25;;;-3.30;99.90;;;;;;7373027;19;20039;-45
2022/12/18 00:03:48;;;;;;;92.82;36.88;;;-3.20;99.90;;;;;;7376010;19;20081;-45
2022/12/18 00:06:16;;;;;;;99.18;35.15;;;-3.20;99.90;;;;;;7372772;19;20014;-44
2022/12/18 00:08:44;;;;;;;97.45;38.67;;;-3.20;99.90;;;;;;7378650;19;20091;-45
2022/12/18 00:11:14;;;;;;;81.63;33.83;;;-3.20;99.90;;;;;;7376029;19;20014;-45
2022/12/18 00:13:41;;;;;;;70.05;32.08;;;-3.20;99.90;;;;;;7378686;19;20541;-48
2022/12/18 00:16:12;;;;;;;79.10;33.30;;;-3.20;99.90;;;;;;7376167;19;20021;-42
2022/12/18 00:18:39;;;;;;;79.70;32.40;;;-3.30;99.90;;;;;;7376051;19;20504;-44
2022/12/18 00:21:09;;;;;;;80.78;35.50;;;-3.30;99.90;;;;;;7376413;19;20014;-42
2022/12/18 00:23:37;;;;;;;75.47;34.78;;;-3.30;99.90;;;;;;7376710;19;20383;-44
2022/12/18 00:26:07;;;;;;;83.15;34.40;;;-3.30;99.90;;;;;;7376614;19;20249;-42
2022/12/18 00:28:34;;;;;;;76.15;32.70;;;-3.40;99.90;;;;;;7376111;19;20025;-42
2022/12/18 00:31:05;;;;;;;83.03;33.92;;;-3.40;99.90;;;;;;7378868;19;20343;-48
2022/12/18 00:33:33;;;;;;;83.30;33.63;;;-3.30;99.90;;;;;;7379395;19;20014;-47
2022/12/18 00:36:04;;;;;;;87.07;36.30;;;-3.40;99.90;;;;;;7376446;19;20014;-44
2022/12/18 00:38:32;;;;;;;;;;;-3.40;99.90;;;;;;7373995;19;20029;-45
2022/12/18 00:40:58;;;;;;;89.63;35.70;;;-3.40;99.90;;;;;;7375050;19;19911;-45
2022/12/18 00:43:24;;;;;;;84.18;34.90;;;-3.40;99.90;;;;;;7375829;19;20015;-43
2022/12/18 00:45:52;;;;;;;84.28;38.35;;;-3.30;99.90;;;;;;7374975;19;20021;-47
2022/12/18 00:48:18;;;;;;;98.55;38.22;;;-3.40;99.90;;;;;;7375990;19;20457;-46
2022/12/18 00:50:44;;;;;;;85.15;36.25;;;-3.30;99.90;;;;;;7370698;19;20025;-44
2022/12/18 00:53:11;;;;;;;87.43;34.80;;;-3.30;99.90;;;;;;7369590;19;20903;-44
2022/12/18 00:55:40;;;;;;;86.97;36.60;;;-3.30;99.90;;;;;;7372326;19;20026;-43
2022/12/18 00:58:07;;;;;;;89.50;37.92;;;-3.30;99.90;;;;;;7375980;19;20011;-44
2022/12/18 01:00:34;;;;;;;88.18;37.30;;;-3.30;99.90;;;;;;7372527;19;20371;-46
2022/12/18 01:03:00;;;;;;;90.93;36.38;;;-3.40;99.90;;;;;;7377191;19;20064;-46
2022/12/18 01:05:27;;;;;;;86.03;36.20;;;-3.40;99.90;;;;;;7375029;19;20014;-44
2022/12/18 01:07:53;;;;;;;102.07;37.92;;;-3.40;99.90;;;;;;7375090;19;20019;-45
2022/12/18 01:10:23;;;;;;;98.88;41.78;;;-3.40;99.90;;;;;;7372056;19;20445;-46
2022/12/18 01:12:50;;;;;;;91.60;40.38;;;-3.40;99.90;;;;;;7374415;19;20014;-44
2022/12/18 01:15:18;;;;;;;84.50;35.67;;;-3.40;99.90;;;;;;7372601;19;20015;-47
2022/12/18 01:17:59;;;;;;;92.70;38.72;;;-3.30;99.90;;;;;;7376568;19;20037;-44
2022/12/18 01:20:26;;;;;;;105.25;42.45;;;-3.30;99.90;;;;;;7369431;19;21423;-42
2022/12/18 01:22:53;;;;;;;90.47;37.38;;;-3.30;99.90;;;;;;7374098;19;20030;-42
2022/12/18 01:25:20;;;;;;;90.00;38.17;;;-3.30;99.90;;;;;;7375444;19;20370;-44
2022/12/18 01:27:47;;;;;;;84.95;37.20;;;-3.40;99.90;;;;;;7375879;19;20529;-43
2022/12/18 01:30:13;;;;;;;79.05;36.70;;;-3.40;99.90;;;;;;7373581;19;20042;-42
2022/12/18 01:32:39;;;;;;;86.03;37.13;;;-3.50;99.90;;;;;;7374063;19;20621;-46
2022/12/18 01:35:07;;;;;;;76.40;35.53;;;-3.60;99.90;;;;;;7373813;19;20023;-44
2022/12/18 01:37:34;;;;;;;78.50;36.38;;;-3.60;99.90;;;;;;7376217;19;20416;-42
2022/12/18 01:40:00;;;;;;;74.35;34.97;;;-3.80;99.90;;;;;;7372083;19;20029;-44
2022/12/18 01:42:26;;;;;;;85.03;38.38;;;-3.80;99.90;;;;;;7369085;19;20019;-42
2022/12/18 01:44:57;;;;;;;81.50;37.30;;;-3.90;99.90;;;;;;7375052;19;20463;-44
2022/12/18 01:47:43;;;;;;;86.72;38.65;;;-4.00;99.90;;;;;;7373167;19;20030;-42
2022/12/18 01:50:33;;;;;;;92.72;38.70;;;-4.00;99.90;;;;;;7368541;19;20011;-42
2022/12/18 01:53:13;;;;;;;92.28;40.60;;;-4.10;99.90;;;;;;7373514;19;20133;-42
2022/12/18 01:55:45;;;;;;;93.15;37.85;;;-4.10;99.90;;;;;;7374892;19;20026;-43
2022/12/18 01:58:11;;;;;;;84.43;38.78;;;-4.20;99.90;;;;;;7364440;19;20409;-44
2022/12/18 02:00:38;;;;;;;85.25;38.22;;;-4.30;99.90;;;;;;7366147;19;20454;-43
2022/12/18 02:03:05;;;;;;;92.25;38.08;;;-4.30;99.90;;;;;;7372089;19;20026;-43
2022/12/18 02:05:50;;;;;;;93.10;38.03;;;-4.30;99.90;;;;;;7372465;19;20036;-41
2022/12/18 02:08:32;;;;;;;94.80;37.75;;;-4.40;99.90;;;;;;7371291;19;20018;-43
2022/12/18 02:11:24;;;;;;;100.50;41.20;;;-4.40;99.90;;;;;;7371962;19;20588;-43
2022/12/18 02:14:01;;;;;;;90.05;37.22;;;-4.40;99.90;;;;;;7376275;19;20038;-44
2022/12/18 02:16:46;;;;;;;92.60;37.83;;;-4.50;99.90;;;;;;7373948;19;20033;-41
2022/12/18 02:19:44;;;;;;;93.60;38.70;;;-4.50;99.90;;;;;;7374877;19;20129;-42
2022/12/18 02:22:33;;;;;;;93.93;38.20;;;-4.50;99.90;;;;;;7370517;19;20021;-42
2022/12/18 02:25:23;;;;;;;86.65;39.95;;;-4.60;99.90;;;;;;7372681;19;20025;-44
2022/12/18 02:27:52;;;;;;;83.95;36.72;;;-4.70;99.90;;;;;;7373028;19;20030;-42
2022/12/18 02:30:21;;;;;;;82.30;38.25;;;-4.70;99.90;;;;;;7369296;19;20090;-43
2022/12/18 02:32:53;;;;;;;89.32;37.13;;;-4.70;99.90;;;;;;7372337;19;20615;-42
2022/12/18 02:35:23;;;;;;;;;;;-4.80;99.90;;;;;;7370826;19;20023;-42
2022/12/18 02:37:54;;;;;;;85.28;36.45;;;-4.80;99.90;;;;;;7371391;19;20262;-41
2022/12/18 02:40:23;;;;;;;90.28;36.25;;;-4.80;99.90;;;;;;7370834;19;20026;-42
2022/12/18 02:42:50;;;;;;;85.15;37.28;;;-4.80;99.90;;;;;;7370431;19;20492;-43
2022/12/18 02:45:19;;;;;;;96.05;40.50;;;-4.80;99.90;;;;;;7369366;19;20029;-43
2022/12/18 02:47:49;;;;;;;93.07;36.92;;;-4.90;99.90;;;;;;7372963;19;20030;-42
2022/12/18 02:50:24;;;;;;;89.00;38.33;;;-4.90;99.90;;;;;;7367946;19;20043;-42
2022/12/18 02:53:10;;;;;;;95.60;37.67;;;-4.90;99.90;;;;;;7373079;19;20384;-42
2022/12/18 02:56:03;;;;;;;86.53;38.15;;;-4.90;99.90;;;;;;7369766;19;20552;-42
2022/12/18 02:58:36;;;;;;;88.10;36.45;;;-4.90;99.90;;;;;;7372047;19;20022;-43
2022/12/18 03:01:24;;;;;;;85.75;37.95;;;-4.90;99.90;;;;;;7368480;19;20474;-42
2022/12/18 03:04:01;;;;;;;87.18;38.72;;;-5.00;99.90;;;;;;7370448;19;20533;-42
2022/12/18 03:06:37;;;;;;;89.07;39.75;;;-5.00;99.90;;;;;;7368037;19;20022;-42
2022/12/18 03:09:13;;;;;;;87.15;37.78;;;-5.00;99.90;;;;;;7372147;19;20025;-41
2022/12/18 03:14:34;;;;;;;83.05;36.13;;;-5.10;99.90;;;;;;7377361;19;20073;-42
2022/12/18 03:17:07;;;;;;;78.35;37.70;;;-5.10;99.90;;;;;;7378080;19;20513;-42
2022/12/18 03:19:34;;;;;;;86.47;38.17;;;-5.00;99.90;;;;;;7375072;19;20379;-41
2022/12/18 03:22:04;;;;;;;78.25;35.45;;;-5.00;99.90;;;;;;7377511;19;20123;-45
2022/12/18 03:24:40;;;;;;;77.18;35.17;;;-5.10;99.90;;;;;;7377036;19;20021;-45
2022/12/18 03:27:12;;;;;;;83.60;36.97;;;-5.10;99.90;;;;;;7378070;19;20018;-46
2022/12/18 03:29:45;;;;;;;89.95;36.60;;;-5.10;99.90;;;;;;7380855;19;20031;-47
2022/12/18 03:32:30;;;;;;;78.38;35.70;;;-5.10;99.90;;;;;;7378124;19;20014;-45
2022/12/18 03:35:02;;;;;;;71.20;36.90;;;-5.20;99.90;;;;;;7376738;19;20053;-47
2022/12/18 03:37:33;;;;;;;88.05;35.78;;;-5.20;99.90;;;;;;7376846;19;20018;-45
2022/12/18 03:39:59;;;;;;;76.82;36.63;;;-5.20;99.90;;;;;;7377463;19;20018;-49
2022/12/18 03:42:37;;;;;;;63.72;31.92;;;-5.30;99.90;;;;;;7372752;19;20496;-46
2022/12/18 03:45:16;;;;;;;69.38;33.55;;;-5.20;99.90;;;;;;7373969;19;20018;-47
2022/12/18 03:47:52;;;;;;;64.70;32.38;;;-5.20;99.90;;;;;;7369645;19;20018;-46
2022/12/18 03:50:41;;;;;;;67.72;32.78;;;-5.20;99.90;;;;;;7375793;19;20459;-47
2022/12/18 03:53:26;;;;;;;74.38;34.47;;;-5.30;99.90;;;;;;7372820;19;20032;-46
2022/12/18 03:55:53;;;;;;;65.68;32.75;;;-5.30;99.90;;;;;;7375752;19;20018;-46
2022/12/18 03:58:24;;;;;;;65.63;31.20;;;-5.30;99.90;;;;;;7377014;19;20063;-46
2022/12/18 04:01:05;;;;;;;68.93;32.50;;;-5.20;99.90;;;;;;7376153;19;20022;-44
2022/12/18 04:03:36;;;;;;;67.38;32.00;;;-5.30;99.90;;;;;;7374904;19;20039;-45
2022/12/18 04:06:04;;;;;;;60.08;30.65;;;-5.30;99.90;;;;;;7375051;19;20022;-44
2022/12/18 04:08:34;;;;;;;58.63;29.30;;;-5.30;99.90;;;;;;7374459;19;20450;-44
2022/12/18 04:11:10;;;;;;;58.65;31.00;;;-5.30;99.90;;;;;;7371955;19;20081;-44
2022/12/18 04:13:39;;;;;;;58.22;30.98;;;-5.40;99.90;;;;;;7377888;19;20018;-43
2022/12/18 04:16:09;;;;;;;56.30;28.63;;;-5.40;99.90;;;;;;7371251;19;20070;-43
2022/12/18 04:18:44;;;;;;;55.72;28.85;;;-5.40;99.90;;;;;;7376326;19;20018;-44
2022/12/18 04:21:14;;;;;;;50.10;27.38;;;-5.40;99.90;;;;;;7367882;19;20569;-44
2022/12/18 04:23:41;;;;;;;63.55;29.42;;;-5.40;99.90;;;;;;7371821;19;20022;-44
2022/12/18 04:26:08;;;;;;;53.83;28.63;;;-5.50;99.90;;;;;;7371572;19;20066;-46
2022/12/18 04:28:45;;;;;;;57.90;29.67;;;-5.50;99.90;;;;;;7377731;19;20085;-45
2022/12/18 04:31:12;;;;;;;49.97;26.88;;;-5.50;99.90;;;;;;7371605;19;20022;-47
2022/12/18 04:33:39;;;;;;;56.67;27.98;;;-5.50;99.90;;;;;;7379038;19;20022;-44
2022/12/18 04:36:07;;;;;;;56.65;26.17;;;-5.60;99.90;;;;;;7372025;19;20018;-40
2022/12/18 04:38:37;;;;;;;49.17;25.70;;;-5.50;99.90;;;;;;7378185;19;20091;-42
2022/12/18 04:41:08;;;;;;;56.75;27.67;;;-5.50;99.90;;;;;;7373111;19;20019;-42
2022/12/18 04:43:35;;;;;;;46.33;26.13;;;-5.50;99.90;;;;;;7374656;19;20014;-41
2022/12/18 04:46:10;;;;;;;53.22;28.08;;;-5.60;99.90;;;;;;7374781;19;20057;-42
2022/12/18 04:48:36;;;;;;;53.70;26.52;;;-5.60;99.90;;;;;;7378977;19;20085;-43
2022/12/18 04:51:04;;;;;;;51.72;27.55;;;-5.60;99.90;;;;;;7376357;19;20174;-41
2022/12/18 04:53:35;;;;;;;49.08;25.55;;;-5.60;99.90;;;;;;7377494;19;20497;-39
2022/12/18 04:56:10;;;;;;;38.92;23.90;;;-5.60;99.90;;;;;;7373820;19;20055;-40
2022/12/18 04:58:38;;;;;;;49.00;25.67;;;-5.60;99.90;;;;;;7373987;19;20018;-40
2022/12/18 05:01:05;;;;;;;48.15;24.25;;;-5.60;99.90;;;;;;7374355;19;20520;-42
2022/12/18 05:03:32;;;;;;;47.53;25.92;;;-5.60;99.90;;;;;;7370691;19;20494;-40
2022/12/18 05:05:58;;;;;;;45.05;25.48;;;-5.60;99.90;;;;;;7374066;19;20030;-40
2022/12/18 05:08:24;;;;;;;44.03;23.15;;;-5.60;99.90;;;;;;7374683;19;20018;-41
2022/12/18 05:10:59;;;;;;;43.13;22.92;;;-5.70;99.90;;;;;;7377499;19;20034;-42
2022/12/18 05:13:31;;;;;;;47.38;26.05;;;-5.70;99.90;;;;;;7371028;19;20539;-42
2022/12/18 05:15:58;;;;;;;46.22;24.63;;;-5.70;99.90;;;;;;7377558;19;20022;-44
2022/12/18 05:18:25;;;;;;;43.03;22.73;;;-5.70;99.90;;;;;;7371207;19;20418;-42
2022/12/18 05:20:52;;;;;;;47.05;24.38;;;-5.70;99.90;;;;;;7375180;19;20504;-41
2022/12/18 05:23:19;;;;;;;42.15;23.42;;;-5.70;99.90;;;;;;7370125;19;20491;-40
2022/12/18 05:25:51;;;;;;;41.90;23.55;;;-5.80;99.90;;;;;;7374552;19;20018;-41
2022/12/18 05:28:25;;;;;;;50.10;24.45;;;-5.80;99.90;;;;;;7372295;19;20018;-44
2022/12/18 05:30:53;;;;;;;48.97;23.73;;;-5.80;99.90;;;;;;7376390;19;20340;-45
2022/12/18 05:33:20;;;;;;;45.85;24.40;;;-5.70;99.90;;;;;;7372048;19;20019;-45
2022/12/18 05:35:59;;;;;;;51.88;26.85;;;-5.80;99.90;;;;;;7371303;19;20014;-46
2022/12/18 05:38:27;;;;;;;47.13;24.30;;;-5.80;99.90;;;;;;7375379;19;20394;-45
2022/12/18 05:40:59;;;;;;;53.38;25.92;;;-5.90;99.90;;;;;;7370025;19;20410;-45
2022/12/18 05:43:26;;;;;;;50.70;25.17;;;-5.90;99.90;;;;;;7371309;19;20421;-47
2022/12/18 05:45:53;;;;;;;46.35;23.83;;;-5.90;99.90;;;;;;7370333;19;20086;-48
2022/12/18 05:48:21;;;;;;;55.08;24.25;;;-6.00;99.90;;;;;;7371919;19;20032;-46
2022/12/18 05:50:49;;;;;;;48.45;27.35;;;-6.00;99.90;;;;;;7374797;19;20022;-48
2022/12/18 05:53:19;;;;;;;45.88;25.02;;;-6.00;99.90;;;;;;7371453;19;20023;-47
2022/12/18 05:55:45;;;;;;;56.88;27.15;;;-6.10;99.90;;;;;;7377232;19;20378;-45
2022/12/18 05:58:13;;;;;;;53.92;25.67;;;-6.10;99.90;;;;;;7370137;19;21867;-41
2022/12/18 06:00:43;;;;;;;45.67;22.20;;;-6.20;99.90;;;;;;7375382;19;20549;-47
2022/12/18 06:03:13;;;;;;;43.90;25.42;;;-6.20;99.90;;;;;;7370257;19;20022;-45
2022/12/18 06:05:41;;;;;;;47.42;25.23;;;-6.20;99.90;;;;;;7373033;19;20022;-46
2022/12/18 06:08:08;;;;;;;43.47;23.08;;;-6.20;99.90;;;;;;7370591;19;20018;-47
2022/12/18 06:10:34;;;;;;;41.80;24.00;;;-6.20;99.90;;;;;;7369692;19;20063;-47
2022/12/18 06:13:01;;;;;;;48.97;24.73;;;-6.20;99.90;;;;;;7371131;19;20023;-49
2022/12/18 06:15:27;;;;;;;46.13;24.77;;;-6.20;99.90;;;;;;7371590;19;20018;-47
2022/12/18 06:17:54;;;;;;;49.08;24.33;;;-6.20;99.90;;;;;;7373453;19;20034;-46
2022/12/18 06:20:20;;;;;;;49.10;25.25;;;-6.20;99.90;;;;;;7372896;19;20022;-47
2022/12/18 06:22:46;;;;;;;55.30;26.05;;;-6.30;99.90;;;;;;7369821;19;20485;-46
2022/12/18 06:25:13;;;;;;;50.85;25.17;;;-6.30;99.90;;;;;;7368709;19;20018;-46
2022/12/18 06:27:39;;;;;;;44.05;23.55;;;-6.30;99.90;;;;;;7371925;19;20478;-42
2022/12/18 06:30:06;;;;;;;45.42;23.52;;;-6.30;99.90;;;;;;7373160;19;20024;-43
2022/12/18 06:32:40;;;;;;;41.40;22.27;;;-6.30;99.90;;;;;;7375837;19;20014;-42
2022/12/18 06:35:06;;;;;;;41.78;21.13;;;-6.20;99.90;;;;;;7374995;19;20288;-42
2022/12/18 06:37:33;;;;;;;47.33;24.17;;;-6.30;99.90;;;;;;7369156;19;20014;-41
2022/12/18 06:40:00;;;;;;;43.47;23.30;;;-6.30;99.90;;;;;;7371826;19;20018;-41
2022/12/18 06:42:29;;;;;;;46.10;25.17;;;-6.30;99.90;;;;;;7369621;19;20094;-42
2022/12/18 06:45:04;;;;;;;42.17;24.45;;;-6.30;99.90;;;;;;7369941;19;20047;-43
2022/12/18 06:47:31;;;;;;;39.38;23.00;;;-6.30;99.90;;;;;;7364951;19;20051;-41
2022/12/18 06:49:57;;;;;;;43.97;24.08;;;-6.30;99.90;;;;;;7369528;19;20470;-41
2022/12/18 06:52:23;;;;;;;40.28;23.42;;;-6.30;99.90;;;;;;7368728;19;20478;-41
2022/12/18 06:54:50;;;;;;;42.88;23.33;;;-6.30;99.90;;;;;;7371091;19;20114;-41
2022/12/18 06:57:16;;;;;;;38.20;23.42;;;-6.30;99.90;;;;;;7373493;19;20038;-44
2022/12/18 06:59:44;;;;;;;40.83;22.00;;;-6.40;99.90;;;;;;7371312;19;20011;-42
2022/12/18 07:02:12;;;;;;;40.72;21.23;;;-6.40;99.90;;;;;;7372787;19;20039;-43
2022/12/18 07:04:40;;;;;;;38.90;22.10;;;-6.40;99.90;;;;;;7372622;19;20017;-42
2022/12/18 07:07:06;;;;;;;37.00;20.73;;;-6.40;99.90;;;;;;7371063;19;20528;-43
2022/12/18 07:09:33;;;;;;;39.15;21.90;;;-6.40;99.90;;;;;;7369790;19;20022;-43
2022/12/18 07:11:59;;;;;;;40.58;22.05;;;-6.40;99.90;;;;;;7368738;19;20023;-42
2022/12/18 07:14:25;;;;;;;34.85;19.33;;;-6.40;99.90;;;;;;7369668;19;20018;-42
2022/12/18 07:16:51;;;;;;;30.65;18.80;;;-6.50;99.90;;;;;;7364128;19;20021;-43
2022/12/18 07:19:17;;;;;;;32.97;18.63;;;-6.50;99.90;;;;;;7366252;19;20010;-41
2022/12/18 07:21:43;;;;;;;39.20;22.35;;;-6.50;99.90;;;;;;7352383;19;20011;-44
2022/12/18 07:24:11;;;;;;;38.83;20.02;;;-6.50;99.90;;;;;;7359608;19;20015;-42
2022/12/18 07:26:38;;;;;;;31.92;19.48;;;-6.50;99.90;;;;;;7364843;19;20014;-42
2022/12/18 07:29:04;;;;;;;37.35;21.17;;;-6.50;99.90;;;;;;7370975;19;20017;-41
2022/12/18 07:31:30;;;;;;;35.08;20.70;;;-6.50;99.90;;;;;;7369837;19;20030;-43
2022/12/18 07:33:56;;;;;;;35.00;21.02;;;-6.60;99.90;;;;;;7370939;19;20026;-42
2022/12/18 07:36:23;;;;;;;34.22;21.58;;;-6.50;99.90;;;;;;7368249;19;20416;-42
2022/12/18 07:38:51;;;;;;;37.25;21.40;;;-6.50;99.90;;;;;;7366608;19;20074;-41
2022/12/18 07:41:18;;;;;;;32.20;19.90;;;-6.50;99.90;;;;;;7369217;19;20019;-46
2022/12/18 07:43:46;;;;;;;33.85;18.52;;;-6.50;99.90;;;;;;7364856;19;20018;-40
2022/12/18 07:46:13;;;;;;;32.15;20.23;;;-6.50;99.90;;;;;;7358884;19;20015;-47
2022/12/18 07:48:44;;;;;;;37.03;20.65;;;-6.50;99.90;;;;;;7367980;19;20485;-47
2022/12/18 07:51:15;;;;;;;34.88;19.27;;;-6.50;99.90;;;;;;7367802;19;20018;-47
2022/12/18 07:53:41;;;;;;;35.95;20.38;;;-6.40;99.90;;;;;;7367861;19;20765;-47
2022/12/18 07:56:11;;;;;;;36.85;21.33;;;-6.40;99.90;;;;;;7370820;19;20362;-47
2022/12/18 07:58:38;;;;;;;37.85;21.98;;;-6.40;99.90;;;;;;7369553;19;20025;-46
2022/12/18 08:01:09;;;;;;;31.27;19.30;;;-6.40;99.90;;;;;;7368880;19;20022;-46
2022/12/18 08:03:35;;;;;;;32.58;19.90;;;-6.30;99.90;;;;;;7360171;19;20023;-46
2022/12/18 08:06:04;;;;;;;34.97;19.95;;;-6.30;99.90;;;;;;7369239;19;20019;-45
2022/12/18 08:08:31;;;;;;;34.53;19.92;;;-6.20;99.90;;;;;;7368935;19;20074;-45
2022/12/18 08:10:57;;;;;;;32.72;20.15;;;-6.20;99.90;;;;;;7374626;19;20580;-40
2022/12/18 08:13:24;;;;;;;34.30;19.00;;;-6.10;99.90;;;;;;7371021;19;20023;-41
2022/12/18 08:16:05;;;;;;;33.28;19.20;;;-5.90;99.90;;;;;;7377630;19;20784;-45
2022/12/18 08:18:36;;;;;;;32.65;19.10;;;-5.80;99.90;;;;;;7379445;19;20017;-45
2022/12/18 08:21:13;;;;;;;34.50;17.83;;;-5.70;99.90;;;;;;7375513;19;20025;-46
2022/12/18 08:23:40;;;;;;;29.50;18.27;;;-5.60;99.90;;;;;;7373470;19;20559;-45
2022/12/18 08:26:07;;;;;;;37.88;18.70;;;-5.50;99.90;;;;;;7367349;19;20474;-46
2022/12/18 08:28:34;;;;;;;31.50;16.25;;;-5.30;99.90;;;;;;7367663;19;20326;-48
2022/12/18 08:31:00;;;;;;;24.90;16.65;;;-5.20;99.90;;;;;;7373508;19;20604;-49
2022/12/18 08:33:27;;;;;;;27.27;16.15;;;-5.10;99.90;;;;;;7370413;19;20045;-49
2022/12/18 08:35:54;;;;;;;26.85;16.02;;;-5.10;99.90;;;;;;7374885;19;20041;-48
2022/12/18 08:38:20;;;;;;;29.25;16.80;;;-5.00;99.90;;;;;;7373364;19;20026;-49
2022/12/18 08:40:47;;;;;;;23.73;16.08;;;-4.90;99.90;;;;;;7366264;19;20485;-45
2022/12/18 08:45:58;;;;;;;25.27;16.13;;;-4.80;99.90;;;;;;7365165;19;20018;-50
2022/12/18 08:48:25;;;;;;;23.73;15.75;;;-4.70;99.90;;;;;;7366023;19;20047;-46
2022/12/18 08:50:56;;;;;;;24.80;15.63;;;-4.60;99.90;;;;;;7368831;19;20457;-45
2022/12/18 08:53:22;;;;;;;21.38;14.40;;;-4.60;99.90;;;;;;7373029;19;20422;-44
2022/12/18 08:55:48;;;;;;;23.70;15.43;;;-4.50;99.90;;;;;;7373090;19;20427;-48
2022/12/18 08:58:16;;;;;;;23.88;15.10;;;-4.40;99.90;;;;;;7371799;19;20019;-47
2022/12/18 09:00:42;;;;;;;21.30;13.73;;;-4.30;99.90;;;;;;7373076;19;20026;-46
2022/12/18 09:03:17;;;;;;;26.02;15.57;;;-4.20;99.90;;;;;;7370234;19;20614;-47
2022/12/18 09:05:46;;;;;;;22.55;14.50;;;-4.00;99.90;;;;;;7373618;19;20366;-45
2022/12/18 09:08:12;;;;;;;24.60;16.02;;;-3.70;99.90;;;;;;7373650;19;20017;-46
2022/12/18 09:10:45;;;;;;;19.35;13.73;;;-3.40;99.90;;;;;;7368082;19;20026;-45
2022/12/18 09:13:17;;;;;;;22.70;14.35;;;-3.20;99.90;;;;;;7367560;19;20383;-41
2022/12/18 09:15:50;;;;;;;22.05;14.32;;;-3.20;99.90;;;;;;7370287;19;20022;-42
2022/12/18 09:18:18;;;;;;;24.05;14.00;;;-3.10;99.90;;;;;;7371684;19;20029;-42
2022/12/18 09:20:45;;;;;;;19.30;12.43;;;-3.10;99.90;;;;;;7371157;19;20027;-41
2022/12/18 09:23:12;;;;;;;17.63;12.07;;;-3.10;99.90;;;;;;7372249;19;20026;-41
2022/12/18 09:25:39;;;;;;;20.50;12.20;;;-3.00;99.90;;;;;;7369032;19;20048;-42
2022/12/18 09:28:12;;;;;;;21.15;13.02;;;-3.00;99.90;;;;;;7375378;19;20510;-41
2022/12/18 09:30:39;;;;;;;18.83;13.43;;;-2.80;99.90;;;;;;7370320;19;20015;-41
2022/12/18 09:33:06;;;;;;;22.25;13.85;;;-2.70;99.90;;;;;;7374576;19;20778;-41
2022/12/18 09:35:32;;;;;;;17.40;11.68;;;-2.50;99.90;;;;;;7368843;19;20082;-41
2022/12/18 09:37:58;;;;;;;20.27;13.15;;;-2.40;99.90;;;;;;7375105;19;20018;-43
2022/12/18 09:40:28;;;;;;;18.60;12.05;;;-2.40;99.90;;;;;;7368350;19;20036;-42
2022/12/18 09:43:00;;;;;;;17.67;12.02;;;-2.40;99.90;;;;;;7374204;19;20659;-42
2022/12/18 09:45:28;;;;;;;16.58;10.77;;;-2.40;99.90;;;;;;7367976;19;20026;-42
2022/12/18 09:47:56;;;;;;;15.20;11.32;;;-2.40;99.90;;;;;;7371849;19;20015;-41
2022/12/18 09:50:33;;;;;;;17.98;11.55;;;-2.30;99.90;;;;;;7374101;19;20525;-44
2022/12/18 09:53:05;;;;;;;15.68;11.38;;;-2.20;99.90;;;;;;7372939;19;20014;-44
2022/12/18 09:55:38;;;;;;;17.23;10.25;;;-2.10;99.90;;;;;;7371776;19;20043;-44
2022/12/18 09:58:15;;;;;;;14.93;9.65;;;-2.00;99.90;;;;;;7372487;19;20089;-42
2022/12/18 10:00:41;;;;;;;16.92;10.75;;;-1.90;99.90;;;;;;7375044;19;20139;-43
2022/12/18 10:03:13;;;;;;;14.30;9.45;;;-1.80;99.90;;;;;;7367525;19;20018;-42
2022/12/18 10:05:49;;;;;;;15.30;9.77;;;-1.70;99.90;;;;;;7371312;19;20030;-41
2022/12/18 10:08:23;;;;;;;15.63;9.82;;;-1.50;99.90;;;;;;7371841;19;20011;-42
2022/12/18 10:10:57;;;;;;;13.32;9.82;;;-1.40;99.90;;;;;;7369252;19;20018;-42
2022/12/18 10:13:36;;;;;;;15.43;9.88;;;-1.30;99.90;;;;;;7371572;19;20487;-43
2022/12/18 10:16:19;;;;;;;13.50;9.35;;;-1.30;99.90;;;;;;7371334;19;20425;-43
2022/12/18 10:19:18;;;;;;;13.57;9.80;;;-1.20;99.90;;;;;;7368759;19;20022;-43
2022/12/18 10:22:10;;;;;;;13.60;8.45;;;-1.20;99.90;;;;;;7370891;19;20021;-42
2022/12/18 10:24:48;;;;;;;;;;;-1.20;99.90;;;;;;7369126;19;20101;-42
2022/12/18 10:27:17;;;;;;;13.10;8.70;;;-1.40;99.90;;;;;;7373139;19;19947;-42
2022/12/18 10:29:45;;;;;;;11.75;8.02;;;-1.40;99.90;;;;;;7374742;19;20019;-49
2022/12/18 10:32:20;;;;;;;10.88;7.95;;;-1.50;99.90;;;;;;7370271;19;20033;-48
2022/12/18 10:34:49;;;;;;;20.35;14.27;;;-1.50;99.90;;;;;;7369736;19;20427;-45
2022/12/18 10:37:23;;;;;;;10.73;7.75;;;-1.60;99.90;;;;;;7369970;19;20506;-46
2022/12/18 10:40:19;;;;;;;13.27;8.95;;;-1.60;99.90;;;;;;7372342;19;20021;-46
2022/12/18 10:43:15;;;;;;;13.68;7.35;;;-1.60;99.90;;;;;;7370072;19;20022;-46
2022/12/18 10:45:42;;;;;;;13.63;7.80;;;-1.50;99.90;;;;;;7369017;19;20474;-45
2022/12/18 10:48:20;;;;;;;12.05;8.45;;;-1.50;99.90;;;;;;7372346;19;20026;-43
2022/12/18 10:50:50;;;;;;;13.10;7.63;;;-1.50;99.90;;;;;;7369996;19;20107;-45
2022/12/18 10:53:23;;;;;;;11.15;7.78;;;-1.50;99.90;;;;;;7364752;19;20026;-46
2022/12/18 10:55:50;;;;;;;10.30;6.97;;;-1.50;99.90;;;;;;7364662;19;20537;-45
2022/12/18 10:58:35;;;;;;;12.10;8.20;;;-1.50;99.90;;;;;;7366500;19;20486;-46
2022/12/18 11:01:13;;;;;;;11.57;7.25;;;-1.60;99.90;;;;;;7369703;19;20022;-46
2022/12/18 11:03:44;;;;;;;12.05;7.68;;;-1.60;99.90;;;;;;7368422;19;20038;-46
2022/12/18 11:06:21;;;;;;;9.02;6.80;;;-1.60;99.90;;;;;;7366203;19;20026;-46
2022/12/18 11:09:04;;;;;;;10.98;7.65;;;-1.60;99.90;;;;;;7372214;19;20050;-49
2022/12/18 11:11:32;;;;;;;12.45;6.57;;;-1.60;99.90;;;;;;7365553;19;20032;-45
2022/12/18 11:14:15;;;;;;;11.20;6.65;;;-1.60;99.90;;;;;;7371800;19;20359;-46
2022/12/18 11:16:47;;;;;;;8.85;5.65;;;-1.50;99.90;;;;;;7367178;19;20018;-48
2022/12/18 11:19:28;;;;;;;8.13;6.22;;;-1.50;99.90;;;;;;7368667;19;20387;-49
2022/12/18 11:21:55;;;;;;;8.98;5.93;;;-1.50;99.90;;;;;;7372030;19;20422;-45
2022/12/18 11:24:35;;;;;;;8.20;5.65;;;-1.40;99.90;;;;;;7365359;19;20029;-45
2022/12/18 11:27:18;;;;;;;8.50;5.90;;;-1.40;99.90;;;;;;7369843;19;20022;-45
2022/12/18 11:29:44;;;;;;;9.13;6.50;;;-1.30;99.90;;;;;;7370325;19;20571;-48
2022/12/18 11:32:40;;;;;;;9.63;6.50;;;-1.20;99.90;;;;;;7379179;19;20026;-44
2022/12/18 11:35:27;;;;;;;9.07;5.40;;;-1.20;99.90;;;;;;7380017;19;20082;-41
2022/12/18 11:38:04;;;;;;;6.57;4.63;;;-1.20;99.90;;;;;;7374601;19;20018;-40
2022/12/18 11:40:37;;;;;;;8.65;5.90;;;-1.10;99.90;;;;;;7373229;19;20114;-42
2022/12/18 11:43:18;;;;;;;8.05;5.50;;;-1.10;99.90;;;;;;7378908;19;20018;-42
2022/12/18 11:45:56;;;;;;;10.73;6.75;;;-1.10;99.90;;;;;;7376731;19;20108;-42
2022/12/18 11:48:52;;;;;;;8.50;5.90;;;-1.10;99.90;;;;;;7374265;19;20010;-42
2022/12/18 11:51:28;;;;;;;8.95;5.95;;;-1.00;99.90;;;;;;7374873;19;20018;-41
2022/12/18 11:53:55;;;;;;;9.68;5.28;;;-1.00;99.90;;;;;;7377253;19;20030;-42
2022/12/18 11:56:39;;;;;;;11.95;6.50;;;-0.90;99.90;;;;;;7377355;19;20014;-41
2022/12/18 11:59:30;;;;;;;10.13;6.70;;;-0.90;99.90;;;;;;7375868;19;20025;-42
2022/12/18 12:02:20;;;;;;;10.25;5.82;;;-0.90;99.90;;;;;;7375994;19;20025;-42
2022/12/18 12:04:59;;;;;;;7.53;5.47;;;-0.90;99.90;;;;;;7375110;19;20046;-42
2022/12/18 12:07:43;;;;;;;11.15;7.03;;;-0.90;99.90;;;;;;7371604;19;20019;-43
2022/12/18 12:10:26;;;;;;;15.15;8.75;;;-0.90;99.90;;;;;;7378014;19;20030;-42
2022/12/18 12:13:14;;;;;;;10.60;6.90;;;-0.90;99.90;;;;;;7377835;19;20040;-43
2022/12/18 12:16:04;;;;;;;10.13;7.28;;;-0.90;99.90;;;;;;7377626;19;20022;-43
2022/12/18 12:18:55;;;;;;;8.45;5.38;;;-0.80;99.90;;;;;;7373473;19;20022;-42
2022/12/18 12:21:28;;;;;;;8.32;5.95;;;-0.80;99.90;;;;;;7378837;19;20517;-43
2022/12/18 12:24:20;;;;;;;8.25;5.90;;;-0.80;99.90;;;;;;7372184;19;20018;-42
2022/12/18 12:26:57;;;;;;;;;;;-0.80;99.90;;;;;;7371488;19;20478;-46
2022/12/18 12:29:40;;;;;;;10.38;6.03;;;-0.80;99.90;;;;;;7375224;19;19970;-41
2022/12/18 12:32:21;;;;;;;6.68;5.40;;;-0.80;99.90;;;;;;7372920;19;20357;-42
2022/12/18 12:35:31;;;;;;;6.18;4.85;;;-0.80;99.90;;;;;;7376551;19;20356;-41
2022/12/18 12:38:30;;;;;;;11.20;6.93;;;-0.80;99.90;;;;;;7374086;19;20019;-42
2022/12/18 12:41:03;;;;;;;9.93;6.47;;;-0.70;99.90;;;;;;7372671;19;20022;-41
2022/12/18 12:43:41;;;;;;;10.05;6.55;;;-0.70;99.90;;;;;;7367415;19;20022;-42
2022/12/18 12:46:16;;;;;;;8.82;5.68;;;-0.70;99.90;;;;;;7376805;19;20022;-42
2022/12/18 12:48:48;;;;;;;7.90;5.93;;;-0.60;99.90;;;;;;7370048;19;20084;-40
2022/12/18 12:51:21;;;;;;;12.63;6.18;;;-0.60;99.90;;;;;;7377674;19;20017;-42
2022/12/18 12:53:48;;;;;;;11.38;6.35;;;-0.50;99.90;;;;;;7374343;19;20623;-41
2022/12/18 12:56:18;;;;;;;9.40;6.38;;;-0.50;99.90;;;;;;7378470;19;20482;-42
2022/12/18 12:58:54;;;;;;;10.50;6.05;;;-0.40;99.90;;;;;;7371490;19;20023;-43
2022/12/18 13:01:43;;;;;;;10.15;6.32;;;-0.40;99.90;;;;;;7374539;19;20114;-41